KPSK Airport Information

Runway Information
Runway 06 Length 6201 ft width 150 ft
Elevation 2105 ft Threshold 0 ft Heading 52
Runway 24 Length 6201 ft Width 150 ft
Elevation 2073 ft Threshold 0 ft Heading 232
Airport Frequencies
Type A/D Name ROANOKE AP Frequency 126 MHZ
Type AWOS Name AWOS 3 Frequency 127.375 MHZ
Type CLD Name CLNC DEL Frequency 121.7 MHZ
Type RDO Name LEESBURG R Frequency 122.3 MHZ
Type UNIC Name CTAF/UNICO Frequency 122.7 MHZ
Airport Navaids
Airport Weather Information & NOTAM
ADDS - METARS form results

(2351 UTC 01 December 2021)
Data provider http://aviationweather.gov/metar/data/
 
METAR text: KPSK 012335Z AUTO 00000KT 10SM BKN110 06/04 A3011 RMK AO2 T00560042
Conditions at: KPSK (DUBLIN/NEW RIV , VA, US) observed 2335 UTC 01 December 2021
Temperature: 5.6°C (42°F)
Dewpoint: 4.2°C (40°F) [RH = 91%]
Pressure (altimeter): 30.11 inches Hg (1019.7 mb)
Winds: calm
Visibility: 10 or more miles (16+ km)
Ceiling: 11000 feet AGL
Clouds: broken clouds at 11000 feet AGL
Weather: automated observation with no human augmentation;
there may or may not be significant weather present at this time

METAR text: KPSK 012255Z AUTO 00000KT 10SM CLR 07/05 A3010 RMK AO2 T00650045
Conditions at: KPSK (DUBLIN/NEW RIV , VA, US) observed 2255 UTC 01 December 2021
Temperature: 6.5°C (44°F)
Dewpoint: 4.5°C (40°F) [RH = 87%]
Pressure (altimeter): 30.10 inches Hg (1019.4 mb)
Winds: calm
Visibility: 10 or more miles (16+ km)
Ceiling: at least 12,000 feet AGL
Clouds: sky clear below 12,000 feet AGL
Weather: automated observation with no human augmentation;
there may or may not be significant weather present at this time